createdAt,value
2018-12-21T00:02:51.283Z,17.50
2018-12-21T00:07:56.071Z,17.50
2018-12-21T00:13:01.138Z,17.50
2018-12-21T00:18:06.086Z,17.50
2018-12-21T00:23:10.879Z,17.50
2018-12-21T00:28:15.673Z,17.50
2018-12-21T00:33:26.070Z,17.50
2018-12-21T00:38:36.281Z,17.50
2018-12-21T00:43:48.301Z,17.50
2018-12-21T00:48:54.232Z,17.50
2018-12-21T00:53:58.975Z,17.50
2018-12-21T00:59:03.906Z,17.50
2018-12-21T01:04:08.816Z,17.50
2018-12-21T01:09:13.566Z,17.50
2018-12-21T01:14:18.574Z,17.50
2018-12-21T01:19:23.503Z,17.50
2018-12-21T01:24:28.312Z,17.50
2018-12-21T01:29:33.194Z,17.50
2018-12-21T01:34:37.981Z,17.50
2018-12-21T01:39:42.862Z,17.50
2018-12-21T01:44:47.844Z,17.50
2018-12-21T01:49:52.681Z,17.50
2018-12-21T01:54:57.465Z,17.50
2018-12-21T02:00:02.459Z,17.50
2018-12-21T02:05:07.425Z,17.50
2018-12-21T02:10:13.391Z,17.50
2018-12-21T02:15:18.151Z,17.50
2018-12-21T02:20:23.944Z,17.50
2018-12-21T02:25:28.735Z,17.50
2018-12-21T02:30:33.575Z,17.50
2018-12-21T02:35:38.391Z,17.50
2018-12-21T02:40:43.311Z,17.50
2018-12-21T02:45:48.219Z,17.50
2018-12-21T02:50:53.159Z,17.50
2018-12-21T02:55:58.376Z,17.50
2018-12-21T03:01:03.366Z,17.50
2018-12-21T03:06:08.312Z,17.50
2018-12-21T03:11:13.139Z,17.50
2018-12-21T03:16:17.962Z,17.50
2018-12-21T03:21:23.020Z,17.50
2018-12-21T03:26:27.865Z,17.50
2018-12-21T03:31:32.615Z,17.50
2018-12-21T03:36:37.628Z,17.50
2018-12-21T03:41:42.576Z,17.50
2018-12-21T03:46:47.542Z,17.50
2018-12-21T03:51:52.550Z,17.50
2018-12-21T03:56:57.507Z,17.50
2018-12-21T04:02:02.474Z,17.50
2018-12-21T04:07:07.322Z,17.50
2018-12-21T04:12:12.065Z,17.50
2018-12-21T04:17:16.859Z,17.50
2018-12-21T04:22:21.872Z,17.50
2018-12-21T04:27:26.657Z,17.50
2018-12-21T04:32:31.491Z,17.50
2018-12-21T04:37:36.313Z,17.50
2018-12-21T04:42:41.372Z,17.50
2018-12-21T04:47:46.311Z,17.50
2018-12-21T04:52:51.085Z,17.60
2018-12-21T04:57:55.919Z,17.50
2018-12-21T05:03:01.275Z,17.50
2018-12-21T05:08:06.048Z,17.50
2018-12-21T05:13:10.924Z,17.50
2018-12-21T05:18:15.793Z,17.60
2018-12-21T05:23:20.670Z,17.60
2018-12-21T05:28:25.658Z,17.60
2018-12-21T05:33:30.446Z,17.60
2018-12-21T05:38:35.263Z,17.60
2018-12-21T05:43:40.104Z,17.60
2018-12-21T05:48:45.203Z,17.60
2018-12-21T05:53:50.267Z,17.60
2018-12-21T05:58:55.219Z,17.60
2018-12-21T06:04:00.145Z,17.60
2018-12-21T06:09:07.619Z,17.60
2018-12-21T06:14:12.721Z,17.60
2018-12-21T06:19:17.658Z,17.70
2018-12-21T06:24:22.462Z,17.70
2018-12-21T06:29:27.410Z,17.70
2018-12-21T06:34:32.253Z,17.70
2018-12-21T06:39:36.997Z,17.70
2018-12-21T06:44:42.022Z,17.80
2018-12-21T06:49:46.869Z,17.70
2018-12-21T06:54:51.755Z,17.80
2018-12-21T06:59:56.520Z,17.80
2018-12-21T07:05:01.335Z,17.80
2018-12-21T07:10:07.824Z,17.80
2018-12-21T07:15:12.571Z,17.80
2018-12-21T07:20:17.449Z,17.90
2018-12-21T07:25:22.273Z,17.80
2018-12-21T07:30:28.877Z,17.80
2018-12-21T07:35:33.732Z,17.80
2018-12-21T07:40:38.983Z,17.80
2018-12-21T07:45:43.772Z,17.80
2018-12-21T07:50:48.566Z,17.80
2018-12-21T07:55:53.348Z,17.90
2018-12-21T08:00:58.300Z,17.90
2018-12-21T08:06:03.073Z,17.90
2018-12-21T08:11:07.845Z,17.90
2018-12-21T08:16:12.681Z,17.90
2018-12-21T08:21:17.773Z,17.90
2018-12-21T08:26:22.602Z,17.90
2018-12-21T08:31:27.536Z,17.90
2018-12-21T08:36:32.507Z,18.00
2018-12-21T08:41:37.440Z,18.00
2018-12-21T08:46:42.337Z,18.00
2018-12-21T08:51:47.297Z,18.00
2018-12-21T08:56:52.052Z,18.00
2018-12-21T09:01:56.903Z,18.00
2018-12-21T09:07:01.769Z,18.00
2018-12-21T09:12:06.556Z,18.10
2018-12-21T09:17:11.477Z,18.10
2018-12-21T09:22:16.481Z,18.20
2018-12-21T09:27:22.335Z,18.20
2018-12-21T09:32:27.145Z,18.30
2018-12-21T09:37:32.192Z,18.30
2018-12-21T09:42:36.998Z,18.30
2018-12-21T09:47:41.803Z,18.30
2018-12-21T09:52:47.115Z,18.30
2018-12-21T09:57:51.883Z,18.40
2018-12-21T10:02:56.916Z,18.40
2018-12-21T10:08:03.110Z,18.40
2018-12-21T10:13:08.647Z,18.40
2018-12-21T10:18:14.133Z,18.50
2018-12-21T10:23:18.920Z,18.50
2018-12-21T10:28:23.748Z,18.40
2018-12-21T10:33:29.649Z,18.50
2018-12-21T10:38:34.498Z,18.50
2018-12-21T10:43:39.300Z,18.50
2018-12-21T10:48:44.048Z,18.50
2018-12-21T10:53:48.807Z,18.60
2018-12-21T10:58:53.673Z,18.60
2018-12-21T11:03:58.510Z,18.60
2018-12-21T11:09:04.210Z,18.60
2018-12-21T11:14:09.042Z,18.60
2018-12-21T11:19:14.179Z,18.60
2018-12-21T11:24:18.967Z,18.60
2018-12-21T11:29:23.871Z,18.60
2018-12-21T11:34:28.827Z,18.60
2018-12-21T11:39:33.720Z,18.60
2018-12-21T11:44:38.466Z,18.70
2018-12-21T11:49:43.304Z,18.70
2018-12-21T11:54:48.260Z,18.70
2018-12-21T11:59:53.070Z,18.70
2018-12-21T12:04:57.870Z,18.70
2018-12-21T12:10:02.650Z,18.70
2018-12-21T12:15:08.261Z,18.70
2018-12-21T12:20:13.157Z,18.70
2018-12-21T12:25:18.296Z,18.80
2018-12-21T12:30:23.159Z,18.80
2018-12-21T12:35:27.948Z,18.70
2018-12-21T12:40:32.717Z,18.80
2018-12-21T12:45:37.606Z,18.80
2018-12-21T12:50:42.367Z,18.80
2018-12-21T12:55:47.226Z,18.80
2018-12-21T13:00:52.094Z,18.80
2018-12-21T13:05:56.892Z,18.80
2018-12-21T13:11:01.799Z,18.80
2018-12-21T13:16:06.573Z,18.80
2018-12-21T13:21:11.432Z,18.80
2018-12-21T13:26:16.193Z,18.80
2018-12-21T13:31:21.013Z,18.80
2018-12-21T13:36:25.797Z,18.80
2018-12-21T13:41:30.629Z,18.80
2018-12-21T13:46:35.498Z,18.80
2018-12-21T13:51:40.354Z,18.80
2018-12-21T13:56:45.164Z,18.80
2018-12-21T14:01:49.923Z,18.80
2018-12-21T14:06:54.770Z,18.80
2018-12-21T14:11:59.564Z,18.80
2018-12-21T14:17:04.406Z,18.80
2018-12-21T14:22:09.194Z,18.80
2018-12-21T14:27:14.001Z,18.80
2018-12-21T14:32:18.899Z,18.80
2018-12-21T14:37:23.929Z,18.80
2018-12-21T14:42:28.717Z,18.70
2018-12-21T14:47:33.852Z,18.70
2018-12-21T14:52:38.590Z,18.70
2018-12-21T14:57:43.453Z,18.70
2018-12-21T15:02:48.280Z,18.70
2018-12-21T15:07:53.035Z,18.70
2018-12-21T15:12:57.846Z,18.70
2018-12-21T15:18:02.953Z,18.70
2018-12-21T15:23:07.786Z,18.70
2018-12-21T15:28:12.545Z,18.70
2018-12-21T15:33:17.317Z,18.70
2018-12-21T15:38:22.104Z,18.70
2018-12-21T15:43:26.965Z,18.70
2018-12-21T15:48:31.763Z,18.70
2018-12-21T15:53:37.145Z,18.70
2018-12-21T15:58:41.921Z,18.70
2018-12-21T16:03:46.694Z,18.70
2018-12-21T16:08:51.532Z,18.70
2018-12-21T16:13:56.311Z,18.70
2018-12-21T16:19:01.153Z,18.70
2018-12-21T16:24:07.045Z,18.70
2018-12-21T16:29:12.180Z,18.70
2018-12-21T16:34:17.027Z,18.70
2018-12-21T16:39:21.830Z,18.70
2018-12-21T16:44:26.591Z,18.70
2018-12-21T16:49:31.457Z,18.60
2018-12-21T16:54:36.295Z,18.70
2018-12-21T16:59:41.104Z,18.70
2018-12-21T17:04:46.125Z,18.70
2018-12-21T17:09:50.970Z,18.70
2018-12-21T17:14:55.786Z,18.70
2018-12-21T17:20:00.643Z,18.70
2018-12-21T17:25:07.618Z,18.70
2018-12-21T17:30:13.165Z,18.70
2018-12-21T17:35:17.932Z,18.70
2018-12-21T17:40:22.750Z,18.70
2018-12-21T17:45:27.536Z,18.70
2018-12-21T17:50:32.365Z,18.70
2018-12-21T17:55:38.155Z,18.70
2018-12-21T18:00:43.007Z,18.70
2018-12-21T18:05:47.768Z,18.70
2018-12-21T18:10:52.616Z,18.70
2018-12-21T18:15:57.401Z,18.70
2018-12-21T18:21:02.740Z,18.70
2018-12-21T18:26:07.691Z,18.70
2018-12-21T18:31:24.333Z,18.80
2018-12-21T18:36:29.229Z,18.80
2018-12-21T18:41:34.371Z,18.80
2018-12-21T18:46:39.207Z,18.70
2018-12-21T18:51:44.011Z,18.70
2018-12-21T18:56:55.023Z,18.70
2018-12-21T19:01:59.872Z,18.70
2018-12-21T19:07:04.778Z,18.60
2018-12-21T19:12:09.922Z,18.70
2018-12-21T19:17:14.847Z,18.60
2018-12-21T19:22:19.591Z,18.60
2018-12-21T19:27:24.424Z,18.60
2018-12-21T19:32:29.214Z,18.60
2018-12-21T19:37:34.008Z,18.60
2018-12-21T19:42:39.256Z,18.60
2018-12-21T19:47:44.023Z,18.60
2018-12-21T19:52:48.936Z,18.60
2018-12-21T19:57:53.785Z,18.60
2018-12-21T20:02:58.587Z,18.60
2018-12-21T20:08:03.421Z,18.60
2018-12-21T20:13:08.231Z,18.60
2018-12-21T20:18:13.157Z,18.60
2018-12-21T20:23:17.980Z,18.60
2018-12-21T20:28:22.847Z,18.60
2018-12-21T20:33:27.761Z,18.60
2018-12-21T20:38:32.558Z,18.60
2018-12-21T20:43:37.350Z,18.60
2018-12-21T20:48:42.165Z,18.50
2018-12-21T20:53:46.962Z,18.60
2018-12-21T20:58:56.404Z,18.60
2018-12-21T21:04:01.356Z,18.60
2018-12-21T21:09:08.812Z,18.60
2018-12-21T21:14:14.944Z,18.60
2018-12-21T21:19:19.711Z,18.60
2018-12-21T21:24:24.458Z,18.60
2018-12-21T21:29:31.185Z,18.60
2018-12-21T21:34:36.004Z,18.60
2018-12-21T21:39:40.870Z,18.60
2018-12-21T21:44:45.606Z,18.60
2018-12-21T21:49:50.468Z,18.60
2018-12-21T21:54:55.285Z,18.60
2018-12-21T22:00:00.049Z,18.60
2018-12-21T22:05:04.915Z,18.60
2018-12-21T22:10:10.874Z,18.60
2018-12-21T22:15:15.729Z,18.60
2018-12-21T22:20:20.505Z,18.60
2018-12-21T22:25:25.305Z,18.60
2018-12-21T22:30:30.127Z,18.60
2018-12-21T22:35:34.928Z,18.60
2018-12-21T22:40:39.710Z,18.60
2018-12-21T22:45:44.571Z,18.60
2018-12-21T22:50:49.350Z,18.60
2018-12-21T22:55:54.100Z,18.60
2018-12-21T23:00:58.877Z,18.60
2018-12-21T23:06:03.828Z,18.60
2018-12-21T23:11:08.683Z,18.60
2018-12-21T23:16:13.717Z,18.60
2018-12-21T23:21:18.515Z,18.60
2018-12-21T23:26:23.509Z,18.70
2018-12-21T23:31:28.276Z,18.60
2018-12-21T23:36:33.163Z,18.60
2018-12-21T23:41:37.960Z,18.60
2018-12-21T23:46:42.751Z,18.60
2018-12-21T23:51:47.679Z,18.60
2018-12-21T23:56:52.464Z,18.70
